Time;durP1;ratioP1;P1;durP2;ratioP2;P2;SDS_P1;SDS_P2;PMS_P1;PMS_P2;Temp;Humidity;BMP_temperature;BMP_pressure;BME280_temperature;BME280_humidity;BME280_pressure;Samples;Min_cycle;Max_cycle;Signal;HPM_P1;HPM_P2
2022/11/26 00:05:10;;;;;;;12.63;5.57;;;;;;;9.41;nan;102408.66;6187776;23;20470;-91
2022/11/26 00:11:45;;;;;;;13.00;5.77;;;;;;;9.44;nan;102435.63;6188375;23;20383;-92
2022/11/26 00:14:35;;;;;;;11.13;5.00;;;;;;;9.41;nan;102435.94;6161959;23;20865;-92
2022/11/26 00:17:23;;;;;;;5.93;3.30;;;;;;;9.39;nan;102443.41;6137851;23;20416;-92
2022/11/26 00:24:01;;;;;;;9.33;4.60;;;;;;;9.39;nan;102442.56;6187830;23;20434;-92
2022/11/26 00:30:21;;;;;;;9.17;4.00;;;;;;;9.36;nan;102443.72;6187122;23;20383;-92
2022/11/26 00:32:51;;;;;;;10.37;4.10;;;;;;;9.28;nan;102432.63;6113725;23;20479;-92
2022/11/26 00:36:00;;;;;;;9.10;4.40;;;;;;;9.34;nan;102434.78;6113008;23;20438;-92
2022/11/26 00:43:02;;;;;;;15.17;4.23;;;;;;;9.29;nan;102432.50;6187817;23;20376;-92
2022/11/26 00:45:42;;;;;;;11.23;4.73;;;;;;;9.28;nan;102440.81;6161368;23;20447;-92
2022/11/26 00:55:53;;;;;;;9.27;4.20;;;;;;;9.22;nan;102425.91;6157518;23;20468;-92
2022/11/26 00:59:16;;;;;;;6.30;3.13;;;;;;;9.24;nan;102423.88;6084011;23;20424;-92
2022/11/26 01:01:58;;;;;;;7.57;3.20;;;;;;;9.23;nan;102418.59;6131540;23;20423;-91
2022/11/26 01:08:32;;;;;;;7.97;3.07;;;;;;;9.24;nan;102403.91;6157283;23;20436;-91
2022/11/26 01:11:01;;;;;;;8.77;3.63;;;;;;;9.23;nan;102399.50;6130338;23;20452;-91
2022/11/26 01:13:29;;;;;;;10.13;4.13;;;;;;;9.22;nan;102401.34;6095011;23;20727;-92
2022/11/26 01:15:59;;;;;;;15.93;3.50;;;;;;;9.15;nan;102388.44;6084486;23;20424;-92
2022/11/26 01:18:27;;;;;;;10.97;3.57;;;;;;;9.09;nan;102380.81;6083180;23;20456;-91
2022/11/26 01:20:55;;;;;;;9.73;3.60;;;;;;;8.99;nan;102378.97;6083924;23;20420;-92
2022/11/26 01:23:39;;;;;;;9.03;4.03;;;;;;;9.01;nan;102389.72;6083474;23;20424;-92
2022/11/26 01:26:46;;;;;;;9.30;4.23;;;;;;;8.93;nan;102384.97;6107754;23;20452;-92
2022/11/26 01:29:28;;;;;;;9.03;4.20;;;;;;;8.78;nan;102380.97;6131293;23;20915;-92
2022/11/26 01:32:33;;;;;;;12.30;4.00;;;;;;;8.84;nan;102385.84;6084251;23;20486;-92
2022/11/26 01:35:09;;;;;;;10.57;5.00;;;;;;;8.74;nan;102387.69;6131580;23;20409;-92
2022/11/26 01:38:00;;;;;;;11.63;4.30;;;;;;;8.76;nan;102385.69;6083577;23;20428;-91
2022/11/26 01:40:30;;;;;;;21.73;3.77;;;;;;;8.65;nan;102367.63;6107007;23;20417;-92
2022/11/26 01:43:25;;;;;;;12.53;4.93;;;;;;;8.75;nan;102378.50;6106996;23;20459;-92
2022/11/26 01:46:17;;;;;;;8.50;4.50;;;;;;;8.92;nan;102387.84;6085653;23;20436;-92
2022/11/26 01:52:27;;;;;;;13.30;3.80;;;;;;;8.91;nan;102383.41;6182448;23;20423;-92
2022/11/26 01:58:38;;;;;;;22.07;4.57;;;;;;;8.89;nan;102389.00;6186961;23;20465;-92
2022/11/26 02:01:07;;;;;;;19.23;4.10;;;;;;;8.80;nan;102362.59;6112011;23;20424;-92
2022/11/26 02:03:59;;;;;;;14.03;3.90;;;;;;;8.82;nan;102365.19;6136001;23;20431;-92
2022/11/26 02:06:54;;;;;;;11.83;4.73;;;;;;;8.90;nan;102385.25;6166190;23;21334;-91
2022/11/26 02:09:39;;;;;;;16.30;4.07;;;;;;;8.88;nan;102390.00;6136614;23;20415;-91
2022/11/26 02:12:20;;;;;;;7.03;3.37;;;;;;;8.81;nan;102386.13;6136645;23;20404;-92
2022/11/26 02:15:06;;;;;;;10.10;4.17;;;;;;;8.85;nan;102400.34;6112202;23;20416;-92
2022/11/26 02:18:00;;;;;;;8.80;3.30;;;;;;;8.82;nan;102404.22;6159911;23;20418;-93
2022/11/26 02:20:49;;;;;;;9.20;3.00;;;;;;;8.76;nan;102404.78;6136299;23;20412;-92
2022/11/26 02:23:55;;;;;;;9.37;2.80;;;;;;;8.72;nan;102397.88;6161477;23;20790;-92
2022/11/26 02:30:14;;;;;;;6.63;2.80;;;;;;;8.66;nan;102403.88;6186157;23;20421;-91
2022/11/26 02:36:36;;;;;;;7.10;2.33;;;;;;;8.56;nan;102403.00;6186450;23;20431;-92
2022/11/26 02:39:21;;;;;;;8.10;2.20;;;;;;;8.41;nan;102378.03;6113253;23;20494;-92
2022/11/26 02:42:03;;;;;;;10.13;2.00;;;;;;;8.51;nan;102391.66;6135487;23;20427;-91
2022/11/26 02:48:22;;;;;;;7.00;1.73;;;;;;;8.46;nan;102404.88;6186234;23;20747;-90
2022/11/26 02:51:00;;;;;;;3.87;1.60;;;;;;;8.39;nan;102393.66;6158853;23;20427;-92
2022/11/26 02:53:52;;;;;;;5.20;1.70;;;;;;;8.43;nan;102399.69;6114218;23;20426;-92
2022/11/26 02:57:02;;;;;;;9.10;2.40;;;;;;;8.40;nan;102408.13;6162219;23;20416;-92
2022/11/26 03:00:00;;;;;;;11.63;4.10;;;;;;;8.38;nan;102407.41;6162060;23;20420;-92
2022/11/26 03:02:35;;;;;;;6.90;2.47;;;;;;;8.29;nan;102396.28;6162127;23;20410;-90
2022/11/26 03:05:35;;;;;;;5.43;1.60;;;;;;;8.32;nan;102404.22;6114446;23;20391;-91
2022/11/26 03:08:19;;;;;;;5.50;1.50;;;;;;;8.27;nan;102401.00;6162484;23;20419;-91
2022/11/26 03:10:51;;;;;;;6.63;1.77;;;;;;;8.28;nan;102404.59;6113520;23;20423;-91
2022/11/26 03:13:30;;;;;;;5.30;2.33;;;;;;;8.26;nan;102410.22;6137728;23;20938;-92
2022/11/26 03:15:59;;;;;;;7.03;1.17;;;;;;;8.24;nan;102395.88;6039154;23;20541;-91
2022/11/26 03:18:43;;;;;;;5.80;1.70;;;;;;;8.14;nan;102405.00;5993085;23;20412;-91
2022/11/26 03:21:10;;;;;;;2.77;1.37;;;;;;;8.07;nan;102392.94;6039361;23;20420;-91
2022/11/26 03:26:58;;;;;;;7.00;2.20;;;;;;;8.02;nan;102389.75;5900363;24;20501;-91
2022/11/26 03:30:04;;;;;;;6.97;2.23;;;;;;;8.09;nan;102405.38;5878224;24;20432;-89
2022/11/26 03:32:38;;;;;;;7.27;1.03;;;;;;;7.98;nan;102397.31;5900558;24;20431;-92
2022/11/26 03:35:40;;;;;;;4.43;1.47;;;;;;;7.96;nan;102402.03;5933354;23;20425;-90
2022/11/26 03:38:29;;;;;;;5.83;1.40;;;;;;;7.94;nan;102393.16;5987778;23;20421;-91
2022/11/26 03:41:13;;;;;;;8.83;0.97;;;;;;;7.90;nan;102388.97;5988485;23;20421;-91
2022/11/26 03:43:52;;;;;;;5.10;1.10;;;;;;;7.88;nan;102388.28;5988673;23;20425;-92
2022/11/26 03:50:06;;;;;;;4.10;1.17;;;;;;;7.70;nan;102368.13;6119734;23;20443;-91
2022/11/26 03:52:48;;;;;;;3.00;1.03;;;;;;;7.84;nan;102390.41;6113399;23;20429;-91
2022/11/26 03:58:42;;;;;;;3.47;1.30;;;;;;;7.60;nan;102357.19;6187074;23;20423;-91
2022/11/26 04:01:30;;;;;;;6.83;1.40;;;;;;;7.75;nan;102376.72;6113551;23;20422;-92
2022/11/26 04:04:11;;;;;;;2.30;0.63;;;;;;;7.67;nan;102369.25;6137113;23;20471;-91
2022/11/26 04:10:02;;;;;;;6.73;1.50;;;;;;;7.72;nan;102364.25;6187482;23;20412;-92
2022/11/26 04:12:45;;;;;;;8.80;1.60;;;;;;;7.70;nan;102362.69;6112660;23;20427;-92
2022/11/26 04:15:53;;;;;;;8.83;1.10;;;;;;;7.70;nan;102373.56;6137616;23;20480;-92
2022/11/26 04:18:23;;;;;;;4.07;1.67;;;;;;;7.62;nan;102361.50;6161468;23;20411;-91
2022/11/26 04:20:56;;;;;;;3.80;1.07;;;;;;;7.65;nan;102367.66;6113251;23;20970;-91
2022/11/26 04:23:46;;;;;;;3.43;1.00;;;;;;;7.60;nan;102362.63;6161475;23;20411;-91
2022/11/26 04:29:57;;;;;;;2.20;0.90;;;;;;;7.51;nan;102358.81;6187232;23;20898;-92
2022/11/26 04:32:38;;;;;;;8.20;1.00;;;;;;;7.53;nan;102367.72;6136934;23;20411;-91
2022/11/26 04:35:24;;;;;;;2.50;0.90;;;;;;;7.50;nan;102351.69;6113205;23;20423;-91
2022/11/26 04:38:04;;;;;;;6.97;0.90;;;;;;;7.51;nan;102357.97;6112543;23;20447;-91
2022/11/26 04:41:11;;;;;;;5.40;0.80;;;;;;;7.52;nan;102370.56;6112722;23;20420;-91
2022/11/26 04:43:41;;;;;;;7.37;1.00;;;;;;;7.42;nan;102369.66;6186524;23;20423;-91
2022/11/26 04:50:41;;;;;;;3.70;0.90;;;;;;;7.42;nan;102392.28;6187455;23;20372;-91
2022/11/26 04:57:03;;;;;;;7.23;2.97;;;;;;;7.41;nan;102390.56;6204376;23;20455;-91
2022/11/26 04:59:41;;;;;;;10.47;4.30;;;;;;;7.44;nan;102393.03;6130835;23;20421;-91
2022/11/26 05:02:15;;;;;;;11.50;5.07;;;;;;;7.26;nan;102370.13;6136698;23;20412;-91
2022/11/26 05:04:48;;;;;;;6.33;2.17;;;;;;;7.39;nan;102376.22;6137153;23;20491;-91
2022/11/26 05:07:17;;;;;;;2.83;1.60;;;;;;;7.26;nan;102353.81;6136592;23;20489;-91
2022/11/26 05:09:44;;;;;;;4.07;1.70;;;;;;;7.42;nan;102375.09;6135784;23;20424;-91
2022/11/26 05:12:45;;;;;;;6.00;1.40;;;;;;;7.42;nan;102370.53;6112393;23;20423;-92
2022/11/26 05:15:35;;;;;;;5.00;2.00;;;;;;;7.45;nan;102373.00;6135834;23;20898;-92
2022/11/26 05:18:17;;;;;;;3.50;1.90;;;;;;;7.36;nan;102354.72;6136003;23;20424;-91
2022/11/26 05:21:00;;;;;;;3.50;1.83;;;;;;;7.40;nan;102372.53;6112234;23;20756;-91
2022/11/26 05:24:06;;;;;;;5.60;2.00;;;;;;;7.46;nan;102388.31;6137536;23;20404;-91
2022/11/26 05:33:55;;;;;;;3.60;1.57;;;;;;;7.44;nan;102370.41;6067094;23;20419;-92
2022/11/26 05:43:17;;;;;;;4.67;1.33;;;;;;;7.47;nan;102372.84;6065880;23;20416;-92
2022/11/26 05:45:56;;;;;;;4.40;1.63;;;;;;;7.44;nan;102375.84;6041300;23;20447;-92
2022/11/26 05:48:59;;;;;;;9.73;3.93;;;;;;;7.44;nan;102373.97;6043853;23;20475;-91
2022/11/26 05:51:52;;;;;;;11.43;2.10;;;;;;;7.44;nan;102375.84;6066365;23;20432;-91
2022/11/26 05:54:30;;;;;;;6.77;1.73;;;;;;;7.41;nan;102374.25;6020061;23;20420;-91
2022/11/26 05:57:21;;;;;;;5.80;2.00;;;;;;;7.40;nan;102367.06;6043502;23;20758;-91
2022/11/26 06:00:43;;;;;;;4.87;2.00;;;;;;;7.41;nan;102373.38;6019769;23;20519;-91
2022/11/26 06:07:17;;;;;;;29.67;12.60;;;;;;;7.40;nan;102361.63;6171912;23;20491;-91
2022/11/26 06:20:33;;;;;;;6.47;2.90;;;;;;;7.33;nan;102368.59;6186543;23;20379;-95
2022/11/26 06:23:11;;;;;;;9.90;5.43;;;;;;;7.35;nan;102371.19;6112065;23;20416;-91
2022/11/26 06:26:15;;;;;;;8.50;3.10;;;;;;;7.31;nan;102367.91;6136196;23;20404;-91
2022/11/26 06:32:43;;;;;;;8.77;2.37;;;;;;;7.25;nan;102371.13;6188768;23;20399;-91
2022/11/26 06:35:12;;;;;;;13.27;2.73;;;;;;;7.22;nan;102369.53;6138091;23;20404;-91
2022/11/26 06:38:16;;;;;;;9.53;2.50;;;;;;;7.24;nan;102369.41;6138076;23;20408;-91
2022/11/26 06:41:07;;;;;;;8.70;3.00;;;;;;;7.24;nan;102378.44;6138241;23;20416;-91
2022/11/26 06:47:22;;;;;;;4.80;1.97;;;;;;;7.19;nan;102390.69;6187726;23;20482;-91
2022/11/26 06:50:03;;;;;;;4.80;1.67;;;;;;;7.16;nan;102388.22;6113429;23;20431;-91
2022/11/26 06:52:41;;;;;;;2.60;1.13;;;;;;;7.04;nan;102392.00;6022092;23;20506;-91
2022/11/26 06:55:11;;;;;;;3.60;1.70;;;;;;;6.99;nan;102389.66;5938520;24;20553;-91
2022/11/26 06:58:14;;;;;;;5.40;1.83;;;;;;;7.02;nan;102399.41;5937934;24;20429;-91
2022/11/26 07:01:09;;;;;;;7.70;1.40;;;;;;;6.98;nan;102416.97;5983731;24;20418;-91
2022/11/26 07:03:41;;;;;;;7.40;1.60;;;;;;;6.91;nan;102414.78;5983015;24;20418;-91
2022/11/26 07:06:24;;;;;;;4.53;1.57;;;;;;;6.90;nan;102418.50;5937593;24;20453;-91
2022/11/26 07:09:08;;;;;;;3.00;1.23;;;;;;;6.97;nan;102426.13;5960660;24;20422;-91
2022/11/26 07:11:52;;;;;;;3.97;1.10;;;;;;;6.81;nan;102408.38;6058669;23;20418;-92
2022/11/26 07:14:21;;;;;;;5.10;1.53;;;;;;;6.92;nan;102421.97;6104762;23;20451;-91
2022/11/26 07:16:57;;;;;;;2.90;1.37;;;;;;;6.94;nan;102414.50;6111545;23;20416;-91
2022/11/26 07:22:49;;;;;;;4.93;1.47;;;;;;;6.97;nan;102421.53;6187259;23;20412;-91
2022/11/26 07:25:42;;;;;;;5.20;2.30;;;;;;;7.00;nan;102428.56;6139847;23;20400;-92
2022/11/26 07:28:25;;;;;;;15.83;2.20;;;;;;;7.00;nan;102444.88;6136853;23;20440;-90
2022/11/26 07:31:18;;;;;;;18.40;2.77;;;;;;;7.02;nan;102441.06;6137647;23;20403;-90
2022/11/26 07:33:59;;;;;;;7.10;2.33;;;;;;;7.01;nan;102441.19;6162820;23;20392;-92
2022/11/26 07:36:29;;;;;;;8.33;2.20;;;;;;;7.00;nan;102447.59;6112754;23;20416;-90
2022/11/26 07:39:13;;;;;;;8.47;2.40;;;;;;;7.04;nan;102457.25;6137139;23;20470;-92
2022/11/26 07:41:48;;;;;;;6.20;2.30;;;;;;;7.02;nan;102453.78;6138109;23;20491;-91
2022/11/26 07:48:03;;;;;;;7.63;2.67;;;;;;;7.06;nan;102447.09;6187646;23;20431;-92
2022/11/26 07:51:17;;;;;;;10.63;1.87;;;;;;;7.10;nan;102454.00;6113333;23;20412;-91
2022/11/26 07:53:50;;;;;;;20.50;3.83;;;;;;;7.04;nan;102449.09;6131611;23;20421;-95
2022/11/26 07:56:36;;;;;;;19.80;3.40;;;;;;;7.16;nan;102457.06;6108364;23;20427;-90
2022/11/26 07:59:08;;;;;;;10.43;3.27;;;;;;;7.19;nan;102445.06;6108238;23;20480;-92
2022/11/26 08:01:36;;;;;;;9.00;2.33;;;;;;;7.22;nan;102439.38;6085154;23;20389;-90
2022/11/26 08:04:12;;;;;;;9.07;2.80;;;;;;;7.23;nan;102431.09;6084114;23;20472;-90
2022/11/26 08:06:46;;;;;;;8.17;3.30;;;;;;;7.32;nan;102434.84;6108644;23;20511;-90
2022/11/26 08:09:23;;;;;;;11.17;3.17;;;;;;;7.38;nan;102434.34;6081672;23;20401;-91
2022/11/26 08:11:50;;;;;;;11.60;3.73;;;;;;;7.42;nan;102427.66;6083869;23;20401;-90
2022/11/26 08:14:21;;;;;;;8.40;3.17;;;;;;;7.52;nan;102434.00;6084327;23;20405;-90
2022/11/26 08:16:56;;;;;;;24.47;3.43;;;;;;;7.60;nan;102434.22;6083167;23;20417;-89
2022/11/26 08:19:34;;;;;;;9.93;3.20;;;;;;;7.63;nan;102425.78;6131889;23;20480;-89
2022/11/26 08:22:05;;;;;;;14.50;5.40;;;;;;;7.73;nan;102434.00;6156590;23;20413;-89
2022/11/26 08:24:35;;;;;;;29.97;5.60;;;;;;;7.78;nan;102431.75;6083914;23;20413;-92
2022/11/26 08:27:13;;;;;;;13.20;3.90;;;;;;;7.94;nan;102432.13;6108268;23;20439;-92
2022/11/26 08:30:05;;;;;;;35.03;4.00;;;;;;;8.17;nan;102440.97;6107666;23;20420;-90
2022/11/26 08:32:51;;;;;;;8.00;3.20;;;;;;;8.30;nan;102449.78;5963830;23;20414;-92
2022/11/26 08:42:57;;;;;;;15.60;4.20;;;;;;;8.77;nan;102458.28;6011404;23;20869;-89
2022/11/26 08:45:39;;;;;;;17.60;4.50;;;;;;;8.90;nan;102458.88;5965012;23;20576;-90
2022/11/26 08:48:08;;;;;;;7.27;4.00;;;;;;;9.00;nan;102459.78;5942110;23;20444;-90
2022/11/26 08:50:38;;;;;;;11.70;4.23;;;;;;;9.07;nan;102451.88;5941898;23;20417;-90
2022/11/26 08:53:06;;;;;;;11.40;4.00;;;;;;;9.23;nan;102457.66;6008325;23;20507;-90
2022/11/26 08:55:34;;;;;;;12.83;4.57;;;;;;;9.39;nan;102457.06;5969235;23;20496;-89
2022/11/26 08:58:25;;;;;;;19.10;6.43;;;;;;;9.46;nan;102438.22;6001443;23;20912;-90
2022/11/26 09:01:13;;;;;;;14.70;6.00;;;;;;;9.68;nan;102452.44;5969512;23;20885;-90
2022/11/26 09:03:55;;;;;;;30.60;17.10;;;;;;;9.85;nan;102450.81;5992525;23;20503;-90
2022/11/26 09:06:35;;;;;;;20.30;10.07;;;;;;;9.98;nan;102440.44;5992422;23;20477;-90
2022/11/26 09:09:13;;;;;;;16.00;6.77;;;;;;;;;;6020360;23;20413;-90
2022/11/26 09:11:49;;;;;;;14.93;7.60;;;;;;;;;;6133973;23;20446;-89
2022/11/26 09:14:18;;;;;;;16.60;9.17;;;;;;;;;;6107574;23;20413;-90
2022/11/26 09:16:46;;;;;;;16.87;8.10;;;;;;;;;;6107543;23;20471;-90
2022/11/26 09:19:16;;;;;;;16.73;8.40;;;;;;;;;;6132160;23;20374;-90
2022/11/26 09:21:44;;;;;;;13.30;6.87;;;;;;;;;;6131484;23;20413;-90
2022/11/26 09:24:12;;;;;;;10.23;5.20;;;;;;;11.25;nan;102463.38;6106974;23;20417;-90
2022/11/26 09:26:42;;;;;;;10.20;3.17;;;;;;;11.50;nan;102459.84;6084112;23;20437;-89
2022/11/26 09:29:19;;;;;;;6.07;2.23;;;;;;;11.76;nan;102459.91;6107440;23;20476;-90
2022/11/26 09:31:50;;;;;;;3.93;2.30;;;;;;;12.04;nan;102449.69;6130772;23;20405;-90
2022/11/26 09:34:40;;;;;;;5.30;2.30;;;;;;;12.26;nan;102442.78;6095814;23;20729;-90
2022/11/26 09:37:09;;;;;;;8.93;3.77;;;;;;;12.44;nan;102451.78;6083975;23;20469;-90
2022/11/26 09:39:36;;;;;;;16.50;6.57;;;;;;;12.68;nan;102448.28;6106884;23;20417;-90
2022/11/26 09:42:07;;;;;;;16.90;7.20;;;;;;;12.89;nan;102445.97;6083799;23;20472;-90
2022/11/26 09:45:03;;;;;;;11.27;4.23;;;;;;;13.10;nan;102440.84;6131842;23;20414;-89
2022/11/26 09:47:40;;;;;;;14.80;4.73;;;;;;;13.31;nan;102445.03;6109261;23;20441;-90
2022/11/26 09:50:18;;;;;;;7.07;3.30;;;;;;;13.54;nan;102453.44;6131167;23;20484;-90
2022/11/26 09:52:50;;;;;;;7.33;4.13;;;;;;;13.72;nan;102452.25;6100954;23;20515;-90
2022/11/26 09:55:22;;;;;;;8.63;3.80;;;;;;;13.91;nan;102459.28;6136620;23;20791;-90
2022/11/26 09:58:13;;;;;;;25.57;10.80;;;;;;;14.13;nan;102454.94;6136451;23;20487;-90
2022/11/26 10:00:42;;;;;;;164.90;125.13;;;;;;;14.26;nan;102441.50;6160122;23;20393;-90
2022/11/26 10:03:41;;;;;;;72.37;43.33;;;;;;;14.48;nan;102443.50;6136417;23;20542;-90
2022/11/26 10:06:34;;;;;;;167.73;90.17;;;;;;;14.63;nan;102438.13;6113029;23;20475;-90
2022/11/26 10:09:23;;;;;;;58.67;27.30;;;;;;;14.82;nan;102434.06;6160217;23;20422;-91
2022/11/26 10:12:33;;;;;;;68.73;30.00;;;;;;;14.93;nan;102433.66;6163363;23;20400;-90
2022/11/26 10:15:38;;;;;;;73.53;27.80;;;;;;;15.23;nan;102445.69;6163968;23;20746;-89
2022/11/26 10:19:00;;;;;;;200.67;97.77;;;;;;;15.44;nan;102443.13;6160750;23;20470;-90
2022/11/26 10:22:02;;;;;;;119.50;54.63;;;;;;;15.65;nan;102445.22;6014251;23;20412;-89
2022/11/26 10:24:40;;;;;;;33.73;17.60;;;;;;;15.76;nan;102441.19;5947747;23;20424;-90
2022/11/26 10:27:19;;;;;;;34.50;17.07;;;;;;;15.85;nan;102435.38;6014648;23;20519;-90
2022/11/26 10:30:17;;;;;;;43.47;20.10;;;;;;;15.99;nan;102447.47;5992063;23;20487;-90
2022/11/26 10:32:46;;;;;;;125.90;58.50;;;;;;;16.11;nan;102445.13;5986108;23;20927;-90
2022/11/26 10:35:22;;;;;;;142.13;75.13;;;;;;;16.20;nan;102443.97;5968532;23;20495;-90
2022/11/26 10:37:54;;;;;;;255.10;125.70;;;;;;;16.38;nan;102454.66;5991650;23;20412;-90
2022/11/26 10:40:26;;;;;;;127.30;73.40;;;;;;;16.44;nan;102443.72;5991735;23;20501;-89
2022/11/26 10:43:13;;;;;;;51.30;31.93;;;;;;;16.45;nan;102442.66;5992853;23;20409;-90
2022/11/26 10:45:49;;;;;;;28.00;15.00;;;;;;;16.61;nan;102460.06;5968976;23;20507;-90
2022/11/26 10:48:43;;;;;;;45.70;27.27;;;;;;;16.67;nan;102438.09;5958550;24;20528;-90
2022/11/26 10:51:32;;;;;;;270.37;153.77;;;;;;;16.77;nan;102451.59;5975775;23;20498;-90
2022/11/26 10:54:03;;;;;;;58.80;38.80;;;;;;;16.83;nan;102453.59;6072708;23;20407;-90
2022/11/26 10:57:00;;;;;;;165.60;76.13;;;;;;;16.95;nan;102449.28;6047867;23;20921;-90
2022/11/26 10:59:50;;;;;;;312.00;159.93;;;;;;;17.06;nan;102446.03;6093956;23;20840;-90
2022/11/26 11:02:31;;;;;;;59.00;31.80;;;;;;;17.17;nan;102448.25;6049273;23;20399;-90
2022/11/26 11:05:04;;;;;;;506.30;310.40;;;;;;;17.26;nan;102454.53;6094753;23;20415;-89
2022/11/26 11:07:38;;;;;;;99.47;48.43;;;;;;;17.37;nan;102453.16;6106563;23;20439;-90
2022/11/26 11:10:10;;;;;;;217.97;91.30;;;;;;;17.46;nan;102457.50;6185653;23;20423;-90
2022/11/26 11:12:39;;;;;;;267.23;123.17;;;;;;;17.47;nan;102445.41;6160180;23;20499;-89
2022/11/26 11:15:24;;;;;;;61.00;29.23;;;;;;;17.57;nan;102443.13;6113010;23;20488;-90
2022/11/26 11:18:06;;;;;;;77.13;38.17;;;;;;;17.67;nan;102429.03;6113547;23;20446;-90
2022/11/26 11:20:40;;;;;;;38.43;19.47;;;;;;;17.68;nan;102430.75;6139321;23;20396;-89
2022/11/26 11:23:11;;;;;;;109.13;47.37;;;;;;;17.86;nan;102450.47;6114311;23;20499;-90
2022/11/26 11:25:40;;;;;;;19.80;8.80;;;;;;;17.91;nan;102451.56;6160966;23;20408;-90
2022/11/26 11:28:17;;;;;;;9.97;4.40;;;;;;;17.94;nan;102456.69;6136966;23;20436;-89
2022/11/26 11:30:46;;;;;;;12.17;4.00;;;;;;;18.01;nan;102455.91;6113793;23;20750;-89
2022/11/26 11:33:20;;;;;;;12.90;3.70;;;;;;;18.10;nan;102454.66;6114515;23;20450;-90
2022/11/26 11:36:03;;;;;;;8.57;2.87;;;;;;;18.12;nan;102447.03;6137518;23;20495;-90
2022/11/26 11:38:33;;;;;;;8.43;2.73;;;;;;;18.29;nan;102454.81;6114382;23;20411;-90
2022/11/26 11:41:04;;;;;;;8.63;2.27;;;;;;;18.40;nan;102450.63;6113441;23;20925;-89
2022/11/26 11:43:35;;;;;;;9.03;2.47;;;;;;;18.40;nan;102434.03;6137464;23;20487;-89
2022/11/26 11:46:31;;;;;;;8.80;2.73;;;;;;;18.53;nan;102436.00;6113531;23;20419;-90
2022/11/26 11:49:25;;;;;;;6.83;1.83;;;;;;;18.52;nan;102431.53;6137062;23;20997;-90
2022/11/26 11:52:18;;;;;;;9.87;2.07;;;;;;;18.68;nan;102445.03;6160115;23;20538;-90
2022/11/26 11:55:13;;;;;;;8.50;2.30;;;;;;;18.70;nan;102428.22;6141064;23;20507;-90
2022/11/26 11:58:17;;;;;;;8.10;2.47;;;;;;;18.75;nan;102422.94;6137430;23;20397;-90
2022/11/26 12:01:13;;;;;;;12.27;2.63;;;;;;;18.90;nan;102431.94;6140165;23;20889;-90
2022/11/26 12:04:07;;;;;;;8.77;2.70;;;;;;;18.96;nan;102433.88;6067334;23;20556;-89
2022/11/26 12:06:54;;;;;;;8.93;2.73;;;;;;;19.07;nan;102430.50;6020521;23;20416;-90
2022/11/26 12:09:30;;;;;;;11.20;2.60;;;;;;;19.11;nan;102420.69;6043836;23;20526;-90
2022/11/26 12:12:10;;;;;;;9.40;2.40;;;;;;;19.25;nan;102416.88;5997712;23;20514;-89
2022/11/26 12:14:40;;;;;;;6.57;2.17;;;;;;;19.24;nan;102404.09;6020627;23;20412;-90
2022/11/26 12:17:17;;;;;;;11.03;2.97;;;;;;;19.39;nan;102403.06;5999347;23;20532;-89
2022/11/26 12:19:58;;;;;;;10.90;2.60;;;;;;;19.50;nan;102403.31;6068527;23;20419;-90
2022/11/26 12:22:30;;;;;;;14.77;3.20;;;;;;;19.64;nan;102404.16;5997914;23;20407;-90
2022/11/26 12:25:06;;;;;;;10.77;3.70;;;;;;;19.64;nan;102393.06;5997490;23;20469;-90
2022/11/26 12:27:41;;;;;;;13.23;2.90;;;;;;;19.82;nan;102396.03;5996746;23;20522;-90
2022/11/26 12:30:13;;;;;;;7.63;2.10;;;;;;;19.86;nan;102388.13;5997438;23;20506;-90
2022/11/26 12:32:56;;;;;;;9.83;2.40;;;;;;;20.01;nan;102389.59;5996872;23;20407;-89
2022/11/26 12:35:29;;;;;;;9.03;2.30;;;;;;;20.11;nan;102380.84;6019779;23;20808;-88
2022/11/26 12:37:58;;;;;;;11.10;2.40;;;;;;;20.09;nan;102362.69;6019107;23;20424;-90
2022/11/26 12:40:43;;;;;;;9.33;2.37;;;;;;;20.25;nan;102371.41;6039983;23;20411;-90
2022/11/26 12:43:15;;;;;;;11.60;2.80;;;;;;;20.18;nan;102339.19;6136650;23;20479;-89
2022/11/26 12:46:07;;;;;;;9.60;2.57;;;;;;;20.39;nan;102360.31;6136691;23;20480;-90
2022/11/26 12:48:46;;;;;;;12.00;3.47;;;;;;;20.45;nan;102356.63;6160610;23;20454;-89
2022/11/26 12:51:28;;;;;;;8.13;2.20;;;;;;;20.50;nan;102354.91;6160766;23;20487;-90
2022/11/26 12:54:14;;;;;;;7.03;2.30;;;;;;;20.53;nan;102354.47;6107782;23;20397;-89
2022/11/26 12:56:52;;;;;;;8.13;2.67;;;;;;;20.51;nan;102364.94;6130801;23;20487;-90
2022/11/26 12:59:31;;;;;;;11.03;2.60;;;;;;;20.53;nan;102365.56;6107124;23;20401;-89
2022/11/26 13:01:59;;;;;;;18.50;3.10;;;;;;;20.56;nan;102358.72;6084389;23;20847;-90
2022/11/26 13:04:28;;;;;;;12.50;2.87;;;;;;;20.58;nan;102351.03;6107509;23;20416;-90
2022/11/26 13:07:09;;;;;;;18.57;3.57;;;;;;;20.58;nan;102338.00;6087811;23;20420;-89
2022/11/26 13:09:49;;;;;;;10.70;2.57;;;;;;;20.66;nan;102351.63;6106414;23;20947;-90
2022/11/26 13:12:25;;;;;;;12.70;3.13;;;;;;;20.66;nan;102354.41;6131045;23;20488;-90
2022/11/26 13:15:20;;;;;;;11.20;3.37;;;;;;;20.74;nan;102352.44;6108092;23;20420;-90
2022/11/26 13:17:49;;;;;;;11.93;3.53;;;;;;;20.73;nan;102350.75;6107197;23;20548;-90
2022/11/26 13:20:47;;;;;;;8.33;2.60;;;;;;;20.74;nan;102349.66;6083322;23;20484;-90
2022/11/26 13:23:29;;;;;;;13.53;2.50;;;;;;;20.70;nan;102346.47;6156943;23;20492;-90
2022/11/26 13:26:01;;;;;;;15.30;2.90;;;;;;;20.76;nan;102348.38;6130599;23;20484;-90
2022/11/26 13:28:53;;;;;;;9.13;3.30;;;;;;;20.78;nan;102337.03;6130699;23;20523;-89
2022/11/26 13:31:45;;;;;;;6.83;2.27;;;;;;;20.80;nan;102324.59;6090291;23;20933;-90
2022/11/26 13:34:34;;;;;;;9.13;2.43;;;;;;;20.82;nan;102318.81;6090697;23;20494;-90
2022/11/26 13:37:08;;;;;;;11.90;2.83;;;;;;;20.82;nan;102329.94;6086603;23;20536;-90
2022/11/26 13:40:12;;;;;;;11.27;2.80;;;;;;;20.86;nan;102326.50;6089940;23;20415;-90
2022/11/26 13:43:02;;;;;;;8.97;2.50;;;;;;;20.91;nan;102311.94;6090404;23;20495;-90
2022/11/26 13:45:59;;;;;;;8.60;2.60;;;;;;;21.03;nan;102319.31;6043209;23;20836;-90
2022/11/26 13:48:54;;;;;;;7.53;2.47;;;;;;;21.01;nan;102306.72;6071320;23;20443;-90
2022/11/26 13:51:37;;;;;;;9.37;2.37;;;;;;;20.96;nan;102303.78;6110224;23;20416;-90
2022/11/26 13:54:19;;;;;;;10.37;2.40;;;;;;;20.98;nan;102302.44;6084118;23;20472;-90
2022/11/26 13:57:00;;;;;;;6.80;1.70;;;;;;;21.05;nan;102299.63;6107439;23;20472;-90
2022/11/26 13:59:28;;;;;;;9.27;2.33;;;;;;;21.17;nan;102303.38;6106285;23;20416;-90
2022/11/26 14:01:56;;;;;;;10.73;2.53;;;;;;;21.23;nan;102299.72;5996830;23;20889;-90
2022/11/26 14:04:23;;;;;;;12.67;2.57;;;;;;;21.22;nan;102289.69;6042854;23;20525;-90
2022/11/26 14:07:06;;;;;;;15.00;4.10;;;;;;;21.19;nan;102286.47;6042989;23;20499;-89
2022/11/26 14:09:55;;;;;;;10.13;2.77;;;;;;;21.12;nan;102280.13;6042260;23;20499;-89
2022/11/26 14:12:24;;;;;;;12.90;3.40;;;;;;;21.06;nan;102276.31;6019157;23;20426;-90
2022/11/26 14:14:52;;;;;;;15.47;2.90;;;;;;;21.00;nan;102266.09;6042708;23;20491;-90
2022/11/26 14:17:24;;;;;;;9.70;2.70;;;;;;;20.89;nan;102258.50;6019593;23;20482;-90
2022/11/26 14:19:58;;;;;;;12.43;2.83;;;;;;;20.92;nan;102270.00;6067582;23;20559;-90
2022/11/26 14:22:35;;;;;;;18.47;3.20;;;;;;;20.80;nan;102259.81;6106800;23;20397;-90
2022/11/26 14:25:08;;;;;;;19.03;2.80;;;;;;;20.90;nan;102268.53;6106975;23;20847;-90
2022/11/26 14:27:53;;;;;;;9.90;2.60;;;;;;;20.96;nan;102270.41;6083632;23;20446;-90
2022/11/26 14:30:23;;;;;;;10.00;2.70;;;;;;;20.90;nan;102254.63;6085258;23;20496;-90
2022/11/26 14:32:53;;;;;;;12.40;2.97;;;;;;;21.01;nan;102274.19;6082988;23;20417;-90
2022/11/26 14:35:35;;;;;;;7.80;2.87;;;;;;;20.99;nan;102269.94;6106445;23;20492;-90
2022/11/26 14:38:05;;;;;;;16.27;2.63;;;;;;;20.94;nan;102259.53;6106353;23;20488;-90
2022/11/26 14:40:39;;;;;;;8.77;2.97;;;;;;;20.99;nan;102256.88;6105893;23;20484;-89
2022/11/26 14:43:13;;;;;;;9.67;2.80;;;;;;;21.12;nan;102264.28;6106232;23;20488;-90
2022/11/26 14:45:42;;;;;;;19.20;3.30;;;;;;;21.04;nan;102245.09;6106603;23;20556;-90
2022/11/26 14:48:28;;;;;;;14.93;3.13;;;;;;;21.12;nan;102241.19;6106726;23;20516;-90
2022/11/26 14:50:58;;;;;;;13.37;3.30;;;;;;;21.17;nan;102238.56;6084025;23;20413;-90
2022/11/26 14:53:30;;;;;;;11.07;2.90;;;;;;;21.12;nan;102255.94;6134507;23;20554;-90
2022/11/26 14:55:58;;;;;;;12.37;3.00;;;;;;;21.11;nan;102253.41;6113486;23;20474;-90